METAR Data
IDs: Format: Raw Decoded Include TAF

Data at: 1437 UTC 21 Nov 2018

KLBX 211353Z AUTO 04010KT 10SM BKN080 09/07 A3030 RMK AO2 SLP260 T00890067

KLBX 211124Z 2112/2212 03008KT P6SM BKN250
  FM211600 05009KT P6SM BKN080
  FM212000 04008KT P6SM FEW030 OVC070
  FM212300 03007KT P6SM VCSH SCT030 OVC050
  PROB30 2203/2209 5SM -SHRA BR BKN025 OVC040
  FM221100 03006KT P6SM OVC050